sensor_id;sensor_type;location;lat;lon;timestamp;pressure;altitude;pressure_sealevel;temperature;humidity
23241;BME280;11789;53.482;9.862;2023-01-27T00:00:08;102512.84;;;2.68;100.00
23241;BME280;11789;53.482;9.862;2023-01-27T00:02:41;102511.97;;;2.68;100.00
23241;BME280;11789;53.482;9.862;2023-01-27T00:05:08;102509.41;;;2.68;100.00
23241;BME280;11789;53.482;9.862;2023-01-27T00:07:34;102513.66;;;2.67;100.00
23241;BME280;11789;53.482;9.862;2023-01-27T00:10:00;102506.78;;;2.66;100.00
23241;BME280;11789;53.482;9.862;2023-01-27T00:12:26;102512.84;;;2.68;100.00
23241;BME280;11789;53.482;9.862;2023-01-27T00:15:11;102515.78;;;2.74;100.00
23241;BME280;11789;53.482;9.862;2023-01-27T00:17:38;102513.38;;;2.77;100.00
23241;BME280;11789;53.482;9.862;2023-01-27T00:20:05;102511.81;;;2.79;100.00
23241;BME280;11789;53.482;9.862;2023-01-27T00:22:31;102510.94;;;2.79;100.00
23241;BME280;11789;53.482;9.862;2023-01-27T00:25:16;102510.84;;;2.77;100.00
23241;BME280;11789;53.482;9.862;2023-01-27T00:27:41;102511.56;;;2.75;100.00
23241;BME280;11789;53.482;9.862;2023-01-27T00:30:08;102519.56;;;2.81;100.00
23241;BME280;11789;53.482;9.862;2023-01-27T00:32:34;102516.22;;;2.82;100.00
23241;BME280;11789;53.482;9.862;2023-01-27T00:35:18;102523.78;;;2.80;100.00
23241;BME280;11789;53.482;9.862;2023-01-27T00:37:44;102530.66;;;2.81;100.00
23241;BME280;11789;53.482;9.862;2023-01-27T00:40:12;102523.94;;;2.83;100.00
23241;BME280;11789;53.482;9.862;2023-01-27T00:42:38;102533.56;;;2.87;100.00
23241;BME280;11789;53.482;9.862;2023-01-27T00:45:04;102527.50;;;2.85;100.00
23241;BME280;11789;53.482;9.862;2023-01-27T00:47:48;102530.72;;;2.83;100.00
23241;BME280;11789;53.482;9.862;2023-01-27T00:50:14;102538.31;;;2.81;100.00
23241;BME280;11789;53.482;9.862;2023-01-27T00:52:41;102538.25;;;2.80;100.00
23241;BME280;11789;53.482;9.862;2023-01-27T00:55:07;102547.66;;;2.81;100.00
23241;BME280;11789;53.482;9.862;2023-01-27T00:57:35;102549.94;;;2.76;100.00
23241;BME280;11789;53.482;9.862;2023-01-27T01:00:02;102546.50;;;2.76;100.00
23241;BME280;11789;53.482;9.862;2023-01-27T01:02:27;102554.97;;;2.75;100.00
23241;BME280;11789;53.482;9.862;2023-01-27T01:04:53;102553.56;;;2.80;100.00
23241;BME280;11789;53.482;9.862;2023-01-27T01:07:19;102557.00;;;2.80;100.00
23241;BME280;11789;53.482;9.862;2023-01-27T01:09:44;102554.59;;;2.83;100.00
23241;BME280;11789;53.482;9.862;2023-01-27T01:12:10;102555.31;;;2.81;100.00
23241;BME280;11789;53.482;9.862;2023-01-27T01:14:40;102555.94;;;2.77;100.00
23241;BME280;11789;53.482;9.862;2023-01-27T01:17:05;102555.84;;;2.75;100.00
23241;BME280;11789;53.482;9.862;2023-01-27T01:19:31;102562.72;;;2.76;100.00
23241;BME280;11789;53.482;9.862;2023-01-27T01:21:56;102552.03;;;2.83;100.00
23241;BME280;11789;53.482;9.862;2023-01-27T01:24:21;102553.84;;;2.84;100.00
23241;BME280;11789;53.482;9.862;2023-01-27T01:26:47;102559.91;;;2.86;100.00
23241;BME280;11789;53.482;9.862;2023-01-27T01:29:13;102557.34;;;2.86;100.00
23241;BME280;11789;53.482;9.862;2023-01-27T01:31:38;102558.06;;;2.84;100.00
23241;BME280;11789;53.482;9.862;2023-01-27T01:34:04;102550.41;;;2.84;100.00
23241;BME280;11789;53.482;9.862;2023-01-27T01:36:29;102555.31;;;2.81;100.00
23241;BME280;11789;53.482;9.862;2023-01-27T01:38:55;102559.63;;;2.82;100.00
23241;BME280;11789;53.482;9.862;2023-01-27T01:41:21;102562.91;;;2.79;100.00
23241;BME280;11789;53.482;9.862;2023-01-27T01:43:49;102569.75;;;2.80;100.00
23241;BME280;11789;53.482;9.862;2023-01-27T01:46:14;102566.59;;;2.84;100.00
23241;BME280;11789;53.482;9.862;2023-01-27T01:48:53;102568.34;;;2.85;100.00
23241;BME280;11789;53.482;9.862;2023-01-27T01:51:20;102563.31;;;2.87;100.00
23241;BME280;11789;53.482;9.862;2023-01-27T01:53:52;102571.72;;;2.84;100.00
23241;BME280;11789;53.482;9.862;2023-01-27T01:56:24;102574.25;;;2.84;100.00
23241;BME280;11789;53.482;9.862;2023-01-27T01:58:52;102573.28;;;2.82;100.00
23241;BME280;11789;53.482;9.862;2023-01-27T02:01:19;102571.53;;;2.81;100.00
23241;BME280;11789;53.482;9.862;2023-01-27T02:03:50;102575.66;;;2.79;100.00
23241;BME280;11789;53.482;9.862;2023-01-27T02:06:18;102579.00;;;2.78;100.00
23241;BME280;11789;53.482;9.862;2023-01-27T02:08:46;102583.34;;;2.79;100.00
23241;BME280;11789;53.482;9.862;2023-01-27T02:11:13;102580.13;;;2.83;100.00
23241;BME280;11789;53.482;9.862;2023-01-27T02:13:39;102575.81;;;2.82;100.00
23241;BME280;11789;53.482;9.862;2023-01-27T02:16:05;102583.50;;;2.82;100.00
23241;BME280;11789;53.482;9.862;2023-01-27T02:18:31;102591.16;;;2.82;100.00
23241;BME280;11789;53.482;9.862;2023-01-27T02:20:57;102590.88;;;2.78;100.00
23241;BME280;11789;53.482;9.862;2023-01-27T02:26:20;102596.63;;;2.74;100.00
23241;BME280;11789;53.482;9.862;2023-01-27T02:28:53;102590.53;;;2.72;100.00
23241;BME280;11789;53.482;9.862;2023-01-27T02:31:20;102598.09;;;2.70;100.00
23241;BME280;11789;53.482;9.862;2023-01-27T02:33:45;102594.75;;;2.71;100.00
23241;BME280;11789;53.482;9.862;2023-01-27T02:36:14;102594.75;;;2.71;100.00
23241;BME280;11789;53.482;9.862;2023-01-27T02:38:46;102598.19;;;2.72;100.00
23241;BME280;11789;53.482;9.862;2023-01-27T02:41:24;102607.59;;;2.73;100.00
23241;BME280;11789;53.482;9.862;2023-01-27T02:43:52;102598.91;;;2.69;100.00
23241;BME280;11789;53.482;9.862;2023-01-27T02:46:17;102604.38;;;2.75;100.00
23241;BME280;11789;53.482;9.862;2023-01-27T02:48:43;102606.72;;;2.72;100.00
23241;BME280;11789;53.482;9.862;2023-01-27T02:51:09;102601.47;;;2.69;100.00
23241;BME280;11789;53.482;9.862;2023-01-27T02:53:34;102608.31;;;2.70;100.00
23241;BME280;11789;53.482;9.862;2023-01-27T02:55:59;102606.56;;;2.69;100.00
23241;BME280;11789;53.482;9.862;2023-01-27T02:58:25;102613.44;;;2.70;100.00
23241;BME280;11789;53.482;9.862;2023-01-27T03:00:51;102610.78;;;2.69;100.00
23241;BME280;11789;53.482;9.862;2023-01-27T03:03:16;102615.91;;;2.69;100.00
23241;BME280;11789;53.482;9.862;2023-01-27T03:05:43;102615.78;;;2.67;100.00
23241;BME280;11789;53.482;9.862;2023-01-27T03:08:09;102619.34;;;2.69;100.00
23241;BME280;11789;53.482;9.862;2023-01-27T03:10:35;102617.53;;;2.68;100.00
23241;BME280;11789;53.482;9.862;2023-01-27T03:13:00;102614.13;;;2.68;100.00
23241;BME280;11789;53.482;9.862;2023-01-27T03:15:26;102611.47;;;2.66;100.00
23241;BME280;11789;53.482;9.862;2023-01-27T03:18:10;102617.38;;;2.65;100.00
23241;BME280;11789;53.482;9.862;2023-01-27T03:20:45;102624.16;;;2.65;100.00
23241;BME280;11789;53.482;9.862;2023-01-27T03:23:12;102631.72;;;2.63;100.00
23241;BME280;11789;53.482;9.862;2023-01-27T03:25:43;102623.97;;;2.62;100.00
23241;BME280;11789;53.482;9.862;2023-01-27T03:28:10;102632.34;;;2.59;100.00
23241;BME280;11789;53.482;9.862;2023-01-27T03:30:36;102631.34;;;2.57;100.00
23241;BME280;11789;53.482;9.862;2023-01-27T03:33:01;102645.12;;;2.59;100.00
23241;BME280;11789;53.482;9.862;2023-01-27T03:35:30;102650.22;;;2.59;100.00
23241;BME280;11789;53.482;9.862;2023-01-27T03:38:01;102649.22;;;2.57;100.00
23241;BME280;11789;53.482;9.862;2023-01-27T03:40:45;102650.03;;;2.56;100.00
23241;BME280;11789;53.482;9.862;2023-01-27T03:43:29;102651.62;;;2.54;100.00
23241;BME280;11789;53.482;9.862;2023-01-27T03:46:13;102658.28;;;2.52;100.00
23241;BME280;11789;53.482;9.862;2023-01-27T03:48:49;102656.44;;;2.49;100.00
23241;BME280;11789;53.482;9.862;2023-01-27T03:51:34;102663.97;;;2.48;100.00
23241;BME280;11789;53.482;9.862;2023-01-27T03:53:59;102671.63;;;2.48;100.00
23241;BME280;11789;53.482;9.862;2023-01-27T03:56:25;102671.75;;;2.49;100.00
23241;BME280;11789;53.482;9.862;2023-01-27T03:58:50;102680.97;;;2.47;100.00
23241;BME280;11789;53.482;9.862;2023-01-27T04:01:19;102675.00;;;2.47;100.00
23241;BME280;11789;53.482;9.862;2023-01-27T04:03:47;102676.66;;;2.46;100.00
23241;BME280;11789;53.482;9.862;2023-01-27T04:06:34;102680.87;;;2.46;100.00
23241;BME280;11789;53.482;9.862;2023-01-27T04:09:20;102679.94;;;2.44;100.00
23241;BME280;11789;53.482;9.862;2023-01-27T04:11:46;102678.94;;;2.42;100.00
23241;BME280;11789;53.482;9.862;2023-01-27T04:14:43;102676.56;;;2.45;100.00
23241;BME280;11789;53.482;9.862;2023-01-27T04:17:09;102673.03;;;2.43;100.00
23241;BME280;11789;53.482;9.862;2023-01-27T04:19:36;102678.13;;;2.43;100.00
23241;BME280;11789;53.482;9.862;2023-01-27T04:22:02;102681.47;;;2.42;100.00
23241;BME280;11789;53.482;9.862;2023-01-27T04:24:28;102689.22;;;2.43;100.00
23241;BME280;11789;53.482;9.862;2023-01-27T04:26:56;102680.69;;;2.43;100.00
23241;BME280;11789;53.482;9.862;2023-01-27T04:29:25;102674.69;;;2.42;100.00
23241;BME280;11789;53.482;9.862;2023-01-27T04:31:51;102679.81;;;2.42;100.00
23241;BME280;11789;53.482;9.862;2023-01-27T04:34:18;102686.59;;;2.42;100.00
23241;BME280;11789;53.482;9.862;2023-01-27T04:36:43;102680.53;;;2.40;100.00
23241;BME280;11789;53.482;9.862;2023-01-27T04:39:10;102689.94;;;2.41;100.00
23241;BME280;11789;53.482;9.862;2023-01-27T04:41:36;102691.53;;;2.39;100.00
23241;BME280;11789;53.482;9.862;2023-01-27T04:44:02;102694.06;;;2.39;100.00
23241;BME280;11789;53.482;9.862;2023-01-27T04:46:28;102694.84;;;2.38;100.00
23241;BME280;11789;53.482;9.862;2023-01-27T04:48:54;102696.50;;;2.37;100.00
23241;BME280;11789;53.482;9.862;2023-01-27T04:51:20;102698.00;;;2.33;100.00
23241;BME280;11789;53.482;9.862;2023-01-27T04:53:45;102694.53;;;2.33;100.00
23241;BME280;11789;53.482;9.862;2023-01-27T04:56:26;102700.44;;;2.32;100.00
23241;BME280;11789;53.482;9.862;2023-01-27T04:58:52;102696.84;;;2.28;100.00
23241;BME280;11789;53.482;9.862;2023-01-27T05:01:19;102705.38;;;2.29;100.00
23241;BME280;11789;53.482;9.862;2023-01-27T05:03:44;102703.72;;;2.29;100.00
23241;BME280;11789;53.482;9.862;2023-01-27T05:06:10;102707.81;;;2.27;100.00
23241;BME280;11789;53.482;9.862;2023-01-27T05:08:36;102724.91;;;2.28;100.00
23241;BME280;11789;53.482;9.862;2023-01-27T05:11:01;102715.66;;;2.30;100.00
23241;BME280;11789;53.482;9.862;2023-01-27T05:13:27;102713.91;;;2.29;100.00
23241;BME280;11789;53.482;9.862;2023-01-27T05:16:06;102725.88;;;2.30;100.00
23241;BME280;11789;53.482;9.862;2023-01-27T05:18:32;102725.00;;;2.30;100.00
23241;BME280;11789;53.482;9.862;2023-01-27T05:20:58;102730.97;;;2.30;100.00
23241;BME280;11789;53.482;9.862;2023-01-27T05:23:25;102734.41;;;2.31;100.00
23241;BME280;11789;53.482;9.862;2023-01-27T05:26:11;102736.88;;;2.29;100.00
23241;BME280;11789;53.482;9.862;2023-01-27T05:28:40;102732.56;;;2.28;100.00
23241;BME280;11789;53.482;9.862;2023-01-27T05:31:11;102740.31;;;2.30;100.00
23241;BME280;11789;53.482;9.862;2023-01-27T05:33:38;102739.31;;;2.28;100.00
23241;BME280;11789;53.482;9.862;2023-01-27T05:36:05;102731.56;;;2.26;100.00
23241;BME280;11789;53.482;9.862;2023-01-27T05:38:31;102728.94;;;2.25;100.00
23241;BME280;11789;53.482;9.862;2023-01-27T05:40:59;102730.78;;;2.27;100.00
23241;BME280;11789;53.482;9.862;2023-01-27T05:43:27;102734.13;;;2.26;100.00
23241;BME280;11789;53.482;9.862;2023-01-27T05:45:53;102728.06;;;2.24;100.00
23241;BME280;11789;53.482;9.862;2023-01-27T05:48:24;102728.63;;;2.20;100.00
23241;BME280;11789;53.482;9.862;2023-01-27T05:50:54;102731.19;;;2.20;100.00
23241;BME280;11789;53.482;9.862;2023-01-27T05:53:20;102729.53;;;2.21;100.00
23241;BME280;11789;53.482;9.862;2023-01-27T05:55:47;102731.09;;;2.19;100.00
23241;BME280;11789;53.482;9.862;2023-01-27T05:58:12;102731.78;;;2.16;100.00
23241;BME280;11789;53.482;9.862;2023-01-27T06:00:38;102726.69;;;2.16;100.00
23241;BME280;11789;53.482;9.862;2023-01-27T06:03:03;102724.13;;;2.16;100.00
23241;BME280;11789;53.482;9.862;2023-01-27T06:05:29;102732.78;;;2.18;100.00
23241;BME280;11789;53.482;9.862;2023-01-27T06:07:54;102737.19;;;2.21;100.00
23241;BME280;11789;53.482;9.862;2023-01-27T06:10:19;102746.72;;;2.23;100.00
23241;BME280;11789;53.482;9.862;2023-01-27T06:12:45;102750.12;;;2.24;100.00
23241;BME280;11789;53.482;9.862;2023-01-27T06:15:10;102753.56;;;2.24;100.00
23241;BME280;11789;53.482;9.862;2023-01-27T06:17:36;102754.06;;;2.19;100.00
23241;BME280;11789;53.482;9.862;2023-01-27T06:20:01;102764.28;;;2.19;100.00
23241;BME280;11789;53.482;9.862;2023-01-27T06:22:27;102765.25;;;2.21;100.00
23241;BME280;11789;53.482;9.862;2023-01-27T06:24:52;102761.03;;;2.21;100.00
23241;BME280;11789;53.482;9.862;2023-01-27T06:27:18;102762.47;;;2.18;100.00
23241;BME280;11789;53.482;9.862;2023-01-27T06:29:43;102771.63;;;2.14;100.00
23241;BME280;11789;53.482;9.862;2023-01-27T06:32:08;102769.88;;;2.13;100.00
23241;BME280;11789;53.482;9.862;2023-01-27T06:34:35;102780.09;;;2.13;100.00
23241;BME280;11789;53.482;9.862;2023-01-27T06:37:01;102780.75;;;2.11;100.00
23241;BME280;11789;53.482;9.862;2023-01-27T06:39:26;102783.22;;;2.09;100.00
23241;BME280;11789;53.482;9.862;2023-01-27T06:41:51;102790.06;;;2.10;100.00
23241;BME280;11789;53.482;9.862;2023-01-27T06:44:17;102802.13;;;2.13;100.00
23241;BME280;11789;53.482;9.862;2023-01-27T06:46:42;102806.25;;;2.11;100.00
23241;BME280;11789;53.482;9.862;2023-01-27T06:49:08;102811.47;;;2.12;100.00
23241;BME280;11789;53.482;9.862;2023-01-27T06:51:33;102805.47;;;2.12;100.00
23241;BME280;11789;53.482;9.862;2023-01-27T06:53:58;102813.81;;;2.09;100.00
23241;BME280;11789;53.482;9.862;2023-01-27T06:56:24;102815.38;;;2.07;100.00
23241;BME280;11789;53.482;9.862;2023-01-27T06:58:49;102819.50;;;2.05;100.00
23241;BME280;11789;53.482;9.862;2023-01-27T07:01:15;102823.63;;;2.03;100.00
23241;BME280;11789;53.482;9.862;2023-01-27T07:03:41;102822.72;;;2.02;100.00
23241;BME280;11789;53.482;9.862;2023-01-27T07:06:07;102830.28;;;2.01;100.00
23241;BME280;11789;53.482;9.862;2023-01-27T07:08:33;102833.84;;;2.03;100.00
23241;BME280;11789;53.482;9.862;2023-01-27T07:11:01;102836.28;;;2.01;100.00
23241;BME280;11789;53.482;9.862;2023-01-27T07:13:27;102835.22;;;1.98;100.00
23241;BME280;11789;53.482;9.862;2023-01-27T07:15:56;102838.53;;;1.97;100.00
23241;BME280;11789;53.482;9.862;2023-01-27T07:18:21;102844.31;;;1.94;100.00
23241;BME280;11789;53.482;9.862;2023-01-27T07:20:54;102854.31;;;1.91;100.00
23241;BME280;11789;53.482;9.862;2023-01-27T07:23:20;102854.13;;;1.88;100.00
23241;BME280;11789;53.482;9.862;2023-01-27T07:25:45;102849.78;;;1.87;100.00
23241;BME280;11789;53.482;9.862;2023-01-27T07:28:11;102865.88;;;1.86;100.00
23241;BME280;11789;53.482;9.862;2023-01-27T07:30:36;102868.53;;;1.88;100.00
23241;BME280;11789;53.482;9.862;2023-01-27T07:33:07;102868.31;;;1.85;100.00
23241;BME280;11789;53.482;9.862;2023-01-27T07:35:35;102871.84;;;1.87;100.00
23241;BME280;11789;53.482;9.862;2023-01-27T07:38:01;102876.06;;;1.86;100.00
23241;BME280;11789;53.482;9.862;2023-01-27T07:40:26;102871.84;;;1.87;100.00
23241;BME280;11789;53.482;9.862;2023-01-27T07:42:52;102876.06;;;1.86;100.00
23241;BME280;11789;53.482;9.862;2023-01-27T07:45:17;102881.28;;;1.88;100.00
23241;BME280;11789;53.482;9.862;2023-01-27T07:47:43;102880.50;;;1.89;100.00
23241;BME280;11789;53.482;9.862;2023-01-27T07:50:09;102884.72;;;1.88;100.00
23241;BME280;11789;53.482;9.862;2023-01-27T07:52:37;102883.06;;;1.89;100.00
23241;BME280;11789;53.482;9.862;2023-01-27T07:55:02;102890.87;;;1.92;100.00
23241;BME280;11789;53.482;9.862;2023-01-27T07:57:28;102888.25;;;1.90;100.00
23241;BME280;11789;53.482;9.862;2023-01-27T07:59:53;102883.94;;;1.89;100.00
23241;BME280;11789;53.482;9.862;2023-01-27T08:02:21;102894.94;;;1.88;100.00
23241;BME280;11789;53.482;9.862;2023-01-27T08:04:48;102885.59;;;1.89;100.00
23241;BME280;11789;53.482;9.862;2023-01-27T08:07:15;102892.38;;;1.88;100.00
23241;BME280;11789;53.482;9.862;2023-01-27T08:09:40;102888.03;;;1.87;100.00
23241;BME280;11789;53.482;9.862;2023-01-27T08:12:05;102889.59;;;1.85;100.00
23241;BME280;11789;53.482;9.862;2023-01-27T08:14:31;102887.06;;;1.85;100.00
23241;BME280;11789;53.482;9.862;2023-01-27T08:16:56;102890.50;;;1.86;100.00
23241;BME280;11789;53.482;9.862;2023-01-27T08:19:22;102898.22;;;1.87;100.00
23241;BME280;11789;53.482;9.862;2023-01-27T08:21:47;102898.34;;;1.89;100.00
23241;BME280;11789;53.482;9.862;2023-01-27T08:24:13;102895.69;;;1.87;100.00
23241;BME280;11789;53.482;9.862;2023-01-27T08:26:39;102900.03;;;1.88;100.00
23241;BME280;11789;53.482;9.862;2023-01-27T08:29:05;102904.44;;;1.91;100.00
23241;BME280;11789;53.482;9.862;2023-01-27T08:31:31;102899.34;;;1.91;100.00
23241;BME280;11789;53.482;9.862;2023-01-27T08:33:56;102899.44;;;1.92;100.00
23241;BME280;11789;53.482;9.862;2023-01-27T08:36:23;102898.75;;;1.95;100.00
23241;BME280;11789;53.482;9.862;2023-01-27T08:38:49;102907.38;;;1.97;100.00
23241;BME280;11789;53.482;9.862;2023-01-27T08:41:18;102907.38;;;1.97;100.00
23241;BME280;11789;53.482;9.862;2023-01-27T08:43:45;102905.63;;;1.96;100.00
23241;BME280;11789;53.482;9.862;2023-01-27T08:46:11;102914.28;;;1.98;100.00
23241;BME280;11789;53.482;9.862;2023-01-27T08:48:37;102917.81;;;2.00;100.00
23241;BME280;11789;53.482;9.862;2023-01-27T08:51:04;102905.94;;;2.00;100.00
23241;BME280;11789;53.482;9.862;2023-01-27T08:53:30;102911.91;;;2.01;100.00
23241;BME280;11789;53.482;9.862;2023-01-27T08:55:57;102920.44;;;2.01;100.00
23241;BME280;11789;53.482;9.862;2023-01-27T08:58:24;102926.44;;;2.02;100.00
23241;BME280;11789;53.482;9.862;2023-01-27T09:00:49;102935.88;;;2.03;100.00
23241;BME280;11789;53.482;9.862;2023-01-27T09:03:15;102933.91;;;1.99;100.00
23241;BME280;11789;53.482;9.862;2023-01-27T09:05:41;102935.66;;;2.00;100.00
23241;BME280;11789;53.482;9.862;2023-01-27T09:08:07;102929.47;;;1.96;100.00
23241;BME280;11789;53.482;9.862;2023-01-27T09:10:37;102941.25;;;1.94;100.00
23241;BME280;11789;53.482;9.862;2023-01-27T09:13:03;102943.88;;;1.96;100.00
23241;BME280;11789;53.482;9.862;2023-01-27T09:15:29;102944.91;;;1.98;100.00
23241;BME280;11789;53.482;9.862;2023-01-27T09:17:54;102943.31;;;2.00;100.00
23241;BME280;11789;53.482;9.862;2023-01-27T09:20:20;102945.56;;;1.95;100.00
23241;BME280;11789;53.482;9.862;2023-01-27T09:22:46;102948.09;;;1.95;100.00
23241;BME280;11789;53.482;9.862;2023-01-27T09:25:16;102942.34;;;1.98;100.00
23241;BME280;11789;53.482;9.862;2023-01-27T09:27:42;102945.88;;;2.00;100.00
23241;BME280;11789;53.482;9.862;2023-01-27T09:30:09;102952.97;;;2.04;100.00
23241;BME280;11789;53.482;9.862;2023-01-27T09:32:36;102955.81;;;2.08;100.00
23241;BME280;11789;53.482;9.862;2023-01-27T09:35:02;102954.81;;;2.45;100.00
23241;BME280;11789;53.482;9.862;2023-01-27T09:37:27;102955.13;;;2.49;100.00
23241;BME280;11789;53.482;9.862;2023-01-27T09:40:01;102956.50;;;2.44;100.00
23241;BME280;11789;53.482;9.862;2023-01-27T09:42:44;102961.28;;;2.40;100.00
23241;BME280;11789;53.482;9.862;2023-01-27T09:45:32;102963.22;;;2.30;100.00
23241;BME280;11789;53.482;9.862;2023-01-27T09:48:28;102955.75;;;2.20;100.00
23241;BME280;11789;53.482;9.862;2023-01-27T09:51:11;102953.34;;;2.10;100.00
23241;BME280;11789;53.482;9.862;2023-01-27T09:59:48;102957.69;;;1.86;100.00
23241;BME280;11789;53.482;9.862;2023-01-27T10:04:59;102962.28;;;1.78;100.00
23241;BME280;11789;53.482;9.862;2023-01-27T10:13:27;102960.50;;;1.77;100.00
23241;BME280;11789;53.482;9.862;2023-01-27T10:15:53;102959.72;;;1.78;100.00
23241;BME280;11789;53.482;9.862;2023-01-27T10:18:45;102953.06;;;1.80;100.00
23241;BME280;11789;53.482;9.862;2023-01-27T10:21:47;102952.16;;;1.80;100.00
23241;BME280;11789;53.482;9.862;2023-01-27T10:24:28;102951.38;;;1.81;100.00
23241;BME280;11789;53.482;9.862;2023-01-27T10:27:15;102947.16;;;1.81;100.00
23241;BME280;11789;53.482;9.862;2023-01-27T10:29:54;102953.28;;;1.84;100.00
23241;BME280;11789;53.482;9.862;2023-01-27T10:32:29;102948.84;;;1.81;100.00
23241;BME280;11789;53.482;9.862;2023-01-27T10:35:12;102953.16;;;1.82;100.00
23241;BME280;11789;53.482;9.862;2023-01-27T10:42:44;102949.56;;;1.92;100.00
23241;BME280;11789;53.482;9.862;2023-01-27T10:45:28;102951.19;;;2.03;100.00
23241;BME280;11789;53.482;9.862;2023-01-27T10:51:12;102942.91;;;2.19;100.00
23241;BME280;11789;53.482;9.862;2023-01-27T10:53:49;102943.97;;;2.22;100.00
23241;BME280;11789;53.482;9.862;2023-01-27T10:56:20;102944.97;;;2.24;100.00
23241;BME280;11789;53.482;9.862;2023-01-27T11:01:45;102941.72;;;2.27;100.00
23241;BME280;11789;53.482;9.862;2023-01-27T11:06:44;102938.69;;;2.32;100.00
23241;BME280;11789;53.482;9.862;2023-01-27T11:09:30;102948.13;;;2.33;100.00
23241;BME280;11789;53.482;9.862;2023-01-27T11:12:02;102937.22;;;2.36;100.00
23241;BME280;11789;53.482;9.862;2023-01-27T11:14:48;102943.44;;;2.40;100.00
23241;BME280;11789;53.482;9.862;2023-01-27T11:17:26;102940.75;;;2.38;100.00
23241;BME280;11789;53.482;9.862;2023-01-27T11:23:14;102949.91;;;2.34;100.00
23241;BME280;11789;53.482;9.862;2023-01-27T11:29:02;102948.09;;;2.20;100.00
23241;BME280;11789;53.482;9.862;2023-01-27T11:34:33;102951.13;;;2.15;100.00
23241;BME280;11789;53.482;9.862;2023-01-27T11:37:21;102947.56;;;2.13;100.00
23241;BME280;11789;53.482;9.862;2023-01-27T11:39:49;102951.13;;;2.15;100.00
23241;BME280;11789;53.482;9.862;2023-01-27T11:42:15;102945.00;;;2.13;100.00
23241;BME280;11789;53.482;9.862;2023-01-27T11:44:42;102938.16;;;2.12;100.00
23241;BME280;11789;53.482;9.862;2023-01-27T11:47:20;102940.81;;;2.13;100.00
23241;BME280;11789;53.482;9.862;2023-01-27T11:49:48;102939.81;;;2.11;100.00
23241;BME280;11789;53.482;9.862;2023-01-27T11:52:18;102928.06;;;2.13;100.00
23241;BME280;11789;53.482;9.862;2023-01-27T11:57:17;102933.94;;;2.12;100.00
23241;BME280;11789;53.482;9.862;2023-01-27T11:59:44;102933.84;;;2.11;100.00
23241;BME280;11789;53.482;9.862;2023-01-27T12:04:49;102928.81;;;2.12;100.00
23241;BME280;11789;53.482;9.862;2023-01-27T12:10:34;102932.94;;;2.10;100.00
23241;BME280;11789;53.482;9.862;2023-01-27T12:13:19;102936.28;;;2.09;100.00
23241;BME280;11789;53.482;9.862;2023-01-27T12:15:54;102931.19;;;2.09;100.00
23241;BME280;11789;53.482;9.862;2023-01-27T12:18:21;102937.84;;;2.07;100.00
23241;BME280;11789;53.482;9.862;2023-01-27T12:20:59;102932.41;;;2.02;100.00
23241;BME280;11789;53.482;9.862;2023-01-27T12:23:39;102937.53;;;2.02;100.00
23241;BME280;11789;53.482;9.862;2023-01-27T12:26:11;102924.59;;;1.99;100.00
23241;BME280;11789;53.482;9.862;2023-01-27T12:31:26;102929.38;;;1.95;100.00
23241;BME280;11789;53.482;9.862;2023-01-27T12:34:03;102930.34;;;1.97;100.00
23241;BME280;11789;53.482;9.862;2023-01-27T12:36:38;102923.69;;;1.99;99.85
23241;BME280;11789;53.482;9.862;2023-01-27T12:39:04;102930.34;;;1.97;99.99
23241;BME280;11789;53.482;9.862;2023-01-27T12:41:35;102925.25;;;1.97;99.67
23241;BME280;11789;53.482;9.862;2023-01-27T12:44:16;102927.03;;;1.98;99.59
23241;BME280;11789;53.482;9.862;2023-01-27T12:46:59;102923.78;;;2.00;99.81
23241;BME280;11789;53.482;9.862;2023-01-27T12:49:34;102927.22;;;2.01;98.79
23241;BME280;11789;53.482;9.862;2023-01-27T12:52:02;102925.69;;;2.03;98.72
23241;BME280;11789;53.482;9.862;2023-01-27T12:54:31;102934.97;;;2.02;98.94
23241;BME280;11789;53.482;9.862;2023-01-27T12:57:18;102928.81;;;1.99;99.39
23241;BME280;11789;53.482;9.862;2023-01-27T12:59:50;102925.56;;;2.01;98.21
23241;BME280;11789;53.482;9.862;2023-01-27T13:02:19;102926.44;;;2.02;98.01
23241;BME280;11789;53.482;9.862;2023-01-27T13:04:52;102925.69;;;2.03;97.39
23241;BME280;11789;53.482;9.862;2023-01-27T13:07:23;102925.69;;;2.03;95.97
23241;BME280;11789;53.482;9.862;2023-01-27T13:10:05;102927.31;;;2.02;95.33
23241;BME280;11789;53.482;9.862;2023-01-27T13:12:59;102925.56;;;2.01;96.12
23241;BME280;11789;53.482;9.862;2023-01-27T13:15:36;102924.69;;;2.01;97.01
23241;BME280;11789;53.482;9.862;2023-01-27T13:18:12;102925.56;;;2.01;96.52
23241;BME280;11789;53.482;9.862;2023-01-27T13:20:45;102924.78;;;2.02;96.21
23241;BME280;11789;53.482;9.862;2023-01-27T13:25:56;102924.00;;;2.03;95.45
23241;BME280;11789;53.482;9.862;2023-01-27T13:28:56;102927.22;;;2.01;94.60
23241;BME280;11789;53.482;9.862;2023-01-27T13:34:46;102919.38;;;1.98;95.26
23241;BME280;11789;53.482;9.862;2023-01-27T13:37:24;102921.03;;;1.97;95.72
23241;BME280;11789;53.482;9.862;2023-01-27T13:45:40;102915.66;;;2.06;93.86
23241;BME280;11789;53.482;9.862;2023-01-27T13:48:15;102924.09;;;2.05;91.78
23241;BME280;11789;53.482;9.862;2023-01-27T13:50:50;102923.31;;;2.06;90.65
23241;BME280;11789;53.482;9.862;2023-01-27T13:53:18;102916.44;;;2.05;90.78
23241;BME280;11789;53.482;9.862;2023-01-27T14:09:40;102917.03;;;2.01;88.70
23241;BME280;11789;53.482;9.862;2023-01-27T14:17:27;102921.72;;;1.95;87.05
23241;BME280;11789;53.482;9.862;2023-01-27T14:25:02;102918.37;;;1.96;87.53
23241;BME280;11789;53.482;9.862;2023-01-27T14:27:42;102914.06;;;1.95;87.78
23241;BME280;11789;53.482;9.862;2023-01-27T14:30:37;102910.53;;;1.93;86.74